sensor_id;sensor_type;location;lat;lon;timestamp;P1;durP1;ratioP1;P2;durP2;ratioP2
36575;SDS011;45700;50.930;5.168;2022-12-10T00:00:31;5.25;;;4.57;;
36575;SDS011;45700;50.930;5.168;2022-12-10T00:04:32;5.75;;;3.53;;
36575;SDS011;45700;50.930;5.168;2022-12-10T00:08:34;12.63;;;4.60;;
36575;SDS011;45700;50.930;5.168;2022-12-10T00:12:35;4.07;;;3.78;;
36575;SDS011;45700;50.930;5.168;2022-12-10T00:16:36;4.30;;;2.95;;
36575;SDS011;45700;50.930;5.168;2022-12-10T00:20:37;3.08;;;2.90;;
36575;SDS011;45700;50.930;5.168;2022-12-10T00:24:38;1.77;;;1.17;;
36575;SDS011;45700;50.930;5.168;2022-12-10T00:28:39;4.80;;;3.55;;
36575;SDS011;45700;50.930;5.168;2022-12-10T00:32:40;6.90;;;4.45;;
36575;SDS011;45700;50.930;5.168;2022-12-10T00:36:42;3.17;;;2.38;;
36575;SDS011;45700;50.930;5.168;2022-12-10T00:40:44;1.10;;;1.08;;
36575;SDS011;45700;50.930;5.168;2022-12-10T00:44:45;7.30;;;6.55;;
36575;SDS011;45700;50.930;5.168;2022-12-10T00:48:46;2.47;;;2.38;;
36575;SDS011;45700;50.930;5.168;2022-12-10T00:52:47;3.47;;;3.08;;
36575;SDS011;45700;50.930;5.168;2022-12-10T00:56:48;1.95;;;1.85;;
36575;SDS011;45700;50.930;5.168;2022-12-10T01:00:49;7.03;;;4.10;;
36575;SDS011;45700;50.930;5.168;2022-12-10T01:04:53;2.42;;;1.98;;
36575;SDS011;45700;50.930;5.168;2022-12-10T01:08:59;9.00;;;4.75;;
36575;SDS011;45700;50.930;5.168;2022-12-10T01:13:01;4.38;;;3.40;;
36575;SDS011;45700;50.930;5.168;2022-12-10T01:17:03;5.35;;;4.45;;
36575;SDS011;45700;50.930;5.168;2022-12-10T01:21:06;0.70;;;0.70;;
36575;SDS011;45700;50.930;5.168;2022-12-10T01:25:07;1.65;;;1.55;;
36575;SDS011;45700;50.930;5.168;2022-12-10T01:29:09;9.68;;;3.53;;
36575;SDS011;45700;50.930;5.168;2022-12-10T01:33:11;1.05;;;1.05;;
36575;SDS011;45700;50.930;5.168;2022-12-10T01:37:12;3.92;;;3.50;;
36575;SDS011;45700;50.930;5.168;2022-12-10T01:41:15;3.80;;;3.30;;
36575;SDS011;45700;50.930;5.168;2022-12-10T01:45:16;2.20;;;2.05;;
36575;SDS011;45700;50.930;5.168;2022-12-10T01:49:19;1.65;;;1.45;;
36575;SDS011;45700;50.930;5.168;2022-12-10T01:53:20;1.90;;;1.80;;
36575;SDS011;45700;50.930;5.168;2022-12-10T01:57:22;2.95;;;1.98;;
36575;SDS011;45700;50.930;5.168;2022-12-10T02:01:32;5.28;;;4.32;;
36575;SDS011;45700;50.930;5.168;2022-12-10T02:05:40;5.88;;;3.55;;
36575;SDS011;45700;50.930;5.168;2022-12-10T02:09:45;2.10;;;2.00;;
36575;SDS011;45700;50.930;5.168;2022-12-10T02:13:56;4.80;;;2.45;;
36575;SDS011;45700;50.930;5.168;2022-12-10T02:18:03;23.88;;;4.80;;
36575;SDS011;45700;50.930;5.168;2022-12-10T02:22:05;24.90;;;3.22;;
36575;SDS011;45700;50.930;5.168;2022-12-10T02:26:23;3.22;;;2.95;;
36575;SDS011;45700;50.930;5.168;2022-12-10T02:30:25;3.17;;;2.88;;
36575;SDS011;45700;50.930;5.168;2022-12-10T02:34:26;4.53;;;1.42;;
36575;SDS011;45700;50.930;5.168;2022-12-10T02:38:31;8.32;;;4.28;;
36575;SDS011;45700;50.930;5.168;2022-12-10T02:42:34;6.18;;;1.30;;
36575;SDS011;45700;50.930;5.168;2022-12-10T02:46:36;2.95;;;2.72;;
36575;SDS011;45700;50.930;5.168;2022-12-10T02:50:38;2.63;;;2.50;;
36575;SDS011;45700;50.930;5.168;2022-12-10T03:06:55;4.05;;;1.80;;
36575;SDS011;45700;50.930;5.168;2022-12-10T03:11:09;1.33;;;0.52;;
36575;SDS011;45700;50.930;5.168;2022-12-10T03:15:11;6.38;;;4.80;;
36575;SDS011;45700;50.930;5.168;2022-12-10T03:19:15;4.07;;;3.20;;
36575;SDS011;45700;50.930;5.168;2022-12-10T03:23:18;2.13;;;1.98;;
36575;SDS011;45700;50.930;5.168;2022-12-10T03:27:19;4.97;;;3.15;;
36575;SDS011;45700;50.930;5.168;2022-12-10T03:31:22;4.35;;;3.92;;
36575;SDS011;45700;50.930;5.168;2022-12-10T03:35:23;3.08;;;2.85;;
36575;SDS011;45700;50.930;5.168;2022-12-10T03:39:25;11.13;;;6.35;;
36575;SDS011;45700;50.930;5.168;2022-12-10T03:43:26;6.30;;;4.13;;
36575;SDS011;45700;50.930;5.168;2022-12-10T03:47:27;7.25;;;2.45;;
36575;SDS011;45700;50.930;5.168;2022-12-10T03:51:29;4.40;;;1.35;;
36575;SDS011;45700;50.930;5.168;2022-12-10T03:55:30;4.20;;;2.97;;
36575;SDS011;45700;50.930;5.168;2022-12-10T03:59:32;2.83;;;2.58;;
36575;SDS011;45700;50.930;5.168;2022-12-10T04:03:37;0.82;;;0.82;;
36575;SDS011;45700;50.930;5.168;2022-12-10T04:07:38;1.58;;;1.38;;
36575;SDS011;45700;50.930;5.168;2022-12-10T04:11:39;7.13;;;3.88;;
36575;SDS011;45700;50.930;5.168;2022-12-10T04:15:40;2.45;;;2.25;;
36575;SDS011;45700;50.930;5.168;2022-12-10T04:20:00;4.90;;;4.25;;
36575;SDS011;45700;50.930;5.168;2022-12-10T04:24:01;3.10;;;1.70;;
36575;SDS011;45700;50.930;5.168;2022-12-10T04:32:22;11.00;;;3.67;;
36575;SDS011;45700;50.930;5.168;2022-12-10T04:36:23;3.72;;;3.00;;
36575;SDS011;45700;50.930;5.168;2022-12-10T04:40:24;11.63;;;4.53;;
36575;SDS011;45700;50.930;5.168;2022-12-10T04:44:25;4.03;;;2.35;;
36575;SDS011;45700;50.930;5.168;2022-12-10T04:48:26;2.38;;;1.73;;
36575;SDS011;45700;50.930;5.168;2022-12-10T04:52:27;15.98;;;6.57;;
36575;SDS011;45700;50.930;5.168;2022-12-10T04:56:28;1.85;;;1.48;;
36575;SDS011;45700;50.930;5.168;2022-12-10T05:00:30;1.25;;;1.05;;
36575;SDS011;45700;50.930;5.168;2022-12-10T05:04:31;1.95;;;1.85;;
36575;SDS011;45700;50.930;5.168;2022-12-10T05:08:32;2.38;;;2.17;;
36575;SDS011;45700;50.930;5.168;2022-12-10T05:12:33;6.97;;;3.35;;
36575;SDS011;45700;50.930;5.168;2022-12-10T05:16:34;2.90;;;2.75;;
36575;SDS011;45700;50.930;5.168;2022-12-10T05:20:35;1.45;;;1.35;;
36575;SDS011;45700;50.930;5.168;2022-12-10T05:24:36;1.65;;;1.55;;
36575;SDS011;45700;50.930;5.168;2022-12-10T05:28:38;5.15;;;1.58;;
36575;SDS011;45700;50.930;5.168;2022-12-10T05:32:39;0.63;;;0.57;;
36575;SDS011;45700;50.930;5.168;2022-12-10T05:36:40;1.63;;;1.60;;
36575;SDS011;45700;50.930;5.168;2022-12-10T05:40:41;2.08;;;1.90;;
36575;SDS011;45700;50.930;5.168;2022-12-10T05:44:42;2.15;;;2.03;;
36575;SDS011;45700;50.930;5.168;2022-12-10T05:48:43;1.17;;;0.70;;
36575;SDS011;45700;50.930;5.168;2022-12-10T05:52:45;7.32;;;0.63;;
36575;SDS011;45700;50.930;5.168;2022-12-10T05:56:45;7.53;;;6.68;;
36575;SDS011;45700;50.930;5.168;2022-12-10T06:00:46;5.07;;;2.28;;
36575;SDS011;45700;50.930;5.168;2022-12-10T06:04:47;0.55;;;0.55;;
36575;SDS011;45700;50.930;5.168;2022-12-10T06:08:49;5.85;;;3.83;;
36575;SDS011;45700;50.930;5.168;2022-12-10T06:12:50;0.77;;;0.77;;
36575;SDS011;45700;50.930;5.168;2022-12-10T06:16:51;1.65;;;1.10;;
36575;SDS011;45700;50.930;5.168;2022-12-10T06:20:52;1.13;;;1.10;;
36575;SDS011;45700;50.930;5.168;2022-12-10T06:24:53;7.30;;;1.50;;
36575;SDS011;45700;50.930;5.168;2022-12-10T06:28:54;6.03;;;3.15;;
36575;SDS011;45700;50.930;5.168;2022-12-10T06:32:55;7.63;;;2.17;;
36575;SDS011;45700;50.930;5.168;2022-12-10T06:36:56;1.33;;;1.23;;
36575;SDS011;45700;50.930;5.168;2022-12-10T06:40:57;21.05;;;6.47;;
36575;SDS011;45700;50.930;5.168;2022-12-10T06:44:58;16.08;;;7.90;;
36575;SDS011;45700;50.930;5.168;2022-12-10T06:48:59;28.75;;;9.50;;
36575;SDS011;45700;50.930;5.168;2022-12-10T06:53:00;34.60;;;11.00;;
36575;SDS011;45700;50.930;5.168;2022-12-10T06:57:01;23.10;;;12.10;;
36575;SDS011;45700;50.930;5.168;2022-12-10T07:01:03;34.05;;;10.30;;
36575;SDS011;45700;50.930;5.168;2022-12-10T07:05:04;17.73;;;9.60;;
36575;SDS011;45700;50.930;5.168;2022-12-10T07:09:06;18.05;;;10.63;;
36575;SDS011;45700;50.930;5.168;2022-12-10T07:13:06;23.55;;;10.82;;
36575;SDS011;45700;50.930;5.168;2022-12-10T07:17:07;20.20;;;8.35;;
36575;SDS011;45700;50.930;5.168;2022-12-10T07:21:12;21.55;;;8.30;;
36575;SDS011;45700;50.930;5.168;2022-12-10T07:25:14;23.55;;;10.30;;
36575;SDS011;45700;50.930;5.168;2022-12-10T07:29:16;23.42;;;10.43;;
36575;SDS011;45700;50.930;5.168;2022-12-10T07:33:17;29.30;;;12.13;;
36575;SDS011;45700;50.930;5.168;2022-12-10T07:37:18;23.17;;;9.60;;
36575;SDS011;45700;50.930;5.168;2022-12-10T07:41:19;39.60;;;13.98;;
36575;SDS011;45700;50.930;5.168;2022-12-10T07:46:02;31.90;;;11.85;;
36575;SDS011;45700;50.930;5.168;2022-12-10T07:50:04;28.25;;;12.00;;
36575;SDS011;45700;50.930;5.168;2022-12-10T07:54:05;26.50;;;10.05;;
36575;SDS011;45700;50.930;5.168;2022-12-10T07:58:06;28.08;;;10.68;;
36575;SDS011;45700;50.930;5.168;2022-12-10T08:02:08;29.17;;;9.95;;
36575;SDS011;45700;50.930;5.168;2022-12-10T08:06:10;31.83;;;10.18;;
36575;SDS011;45700;50.930;5.168;2022-12-10T08:10:11;38.28;;;12.60;;
36575;SDS011;45700;50.930;5.168;2022-12-10T08:14:12;18.48;;;10.70;;
36575;SDS011;45700;50.930;5.168;2022-12-10T08:18:14;36.78;;;12.13;;
36575;SDS011;45700;50.930;5.168;2022-12-10T08:22:15;43.83;;;15.48;;
36575;SDS011;45700;50.930;5.168;2022-12-10T08:26:17;21.63;;;9.15;;
36575;SDS011;45700;50.930;5.168;2022-12-10T08:30:18;22.45;;;10.65;;
36575;SDS011;45700;50.930;5.168;2022-12-10T08:34:19;30.00;;;10.35;;
36575;SDS011;45700;50.930;5.168;2022-12-10T08:38:20;27.60;;;11.68;;
36575;SDS011;45700;50.930;5.168;2022-12-10T08:42:21;27.55;;;11.65;;
36575;SDS011;45700;50.930;5.168;2022-12-10T08:46:22;36.40;;;13.25;;
36575;SDS011;45700;50.930;5.168;2022-12-10T08:50:25;33.10;;;10.43;;
36575;SDS011;45700;50.930;5.168;2022-12-10T08:54:26;40.97;;;17.25;;
36575;SDS011;45700;50.930;5.168;2022-12-10T08:58:27;48.20;;;14.75;;
36575;SDS011;45700;50.930;5.168;2022-12-10T09:02:28;30.35;;;12.25;;
36575;SDS011;45700;50.930;5.168;2022-12-10T09:06:29;26.17;;;12.00;;
36575;SDS011;45700;50.930;5.168;2022-12-10T09:10:30;34.88;;;11.32;;
36575;SDS011;45700;50.930;5.168;2022-12-10T09:14:31;31.60;;;11.07;;
36575;SDS011;45700;50.930;5.168;2022-12-10T09:18:32;38.95;;;14.27;;
36575;SDS011;45700;50.930;5.168;2022-12-10T09:22:33;42.10;;;17.33;;
36575;SDS011;45700;50.930;5.168;2022-12-10T09:26:36;41.65;;;13.40;;
36575;SDS011;45700;50.930;5.168;2022-12-10T09:30:37;40.15;;;11.68;;
36575;SDS011;45700;50.930;5.168;2022-12-10T09:34:38;46.17;;;16.00;;
36575;SDS011;45700;50.930;5.168;2022-12-10T09:38:40;48.28;;;16.63;;
36575;SDS011;45700;50.930;5.168;2022-12-10T09:47:02;36.53;;;11.70;;
36575;SDS011;45700;50.930;5.168;2022-12-10T09:55:18;24.42;;;13.75;;
36575;SDS011;45700;50.930;5.168;2022-12-10T09:59:25;56.20;;;15.95;;
36575;SDS011;45700;50.930;5.168;2022-12-10T10:03:30;42.40;;;14.20;;
36575;SDS011;45700;50.930;5.168;2022-12-10T10:07:33;38.65;;;12.60;;
36575;SDS011;45700;50.930;5.168;2022-12-10T10:11:34;54.17;;;15.25;;
36575;SDS011;45700;50.930;5.168;2022-12-10T10:15:36;34.92;;;8.60;;
36575;SDS011;45700;50.930;5.168;2022-12-10T10:19:38;37.13;;;12.48;;
36575;SDS011;45700;50.930;5.168;2022-12-10T10:23:41;42.05;;;12.45;;
36575;SDS011;45700;50.930;5.168;2022-12-10T10:27:43;25.17;;;12.70;;
36575;SDS011;45700;50.930;5.168;2022-12-10T10:31:44;24.50;;;11.32;;
36575;SDS011;45700;50.930;5.168;2022-12-10T10:35:50;37.00;;;10.32;;
36575;SDS011;45700;50.930;5.168;2022-12-10T10:39:53;36.37;;;9.90;;
36575;SDS011;45700;50.930;5.168;2022-12-10T10:44:01;41.22;;;12.48;;
36575;SDS011;45700;50.930;5.168;2022-12-10T10:48:04;41.75;;;14.20;;
36575;SDS011;45700;50.930;5.168;2022-12-10T10:52:16;25.55;;;9.07;;
36575;SDS011;45700;50.930;5.168;2022-12-10T10:56:18;33.35;;;10.60;;
36575;SDS011;45700;50.930;5.168;2022-12-10T11:00:21;20.45;;;7.93;;
36575;SDS011;45700;50.930;5.168;2022-12-10T11:08:24;31.15;;;10.15;;
36575;SDS011;45700;50.930;5.168;2022-12-10T11:12:39;25.25;;;8.32;;
36575;SDS011;45700;50.930;5.168;2022-12-10T11:16:40;19.20;;;7.90;;
36575;SDS011;45700;50.930;5.168;2022-12-10T11:20:41;43.30;;;10.93;;
36575;SDS011;45700;50.930;5.168;2022-12-10T11:24:56;24.27;;;8.07;;
36575;SDS011;45700;50.930;5.168;2022-12-10T11:33:21;27.38;;;8.77;;
36575;SDS011;45700;50.930;5.168;2022-12-10T11:37:36;42.53;;;9.70;;
36575;SDS011;45700;50.930;5.168;2022-12-10T11:41:41;14.48;;;7.28;;
36575;SDS011;45700;50.930;5.168;2022-12-10T11:45:50;17.88;;;5.95;;
36575;SDS011;45700;50.930;5.168;2022-12-10T11:50:14;19.73;;;8.52;;
36575;SDS011;45700;50.930;5.168;2022-12-10T11:58:45;12.38;;;8.07;;
36575;SDS011;45700;50.930;5.168;2022-12-10T12:07:21;21.90;;;6.35;;
36575;SDS011;45700;50.930;5.168;2022-12-10T12:11:35;21.83;;;8.98;;
36575;SDS011;45700;50.930;5.168;2022-12-10T12:15:45;27.47;;;9.30;;
36575;SDS011;45700;50.930;5.168;2022-12-10T12:19:51;15.95;;;7.43;;
36575;SDS011;45700;50.930;5.168;2022-12-10T12:23:59;12.52;;;7.22;;
36575;SDS011;45700;50.930;5.168;2022-12-10T12:32:04;15.77;;;7.93;;
36575;SDS011;45700;50.930;5.168;2022-12-10T12:36:10;26.23;;;7.40;;
36575;SDS011;45700;50.930;5.168;2022-12-10T12:40:25;24.60;;;7.68;;
36575;SDS011;45700;50.930;5.168;2022-12-10T12:48:40;27.33;;;9.73;;
36575;SDS011;45700;50.930;5.168;2022-12-10T12:52:50;29.17;;;7.63;;
36575;SDS011;45700;50.930;5.168;2022-12-10T12:56:57;37.45;;;10.10;;
36575;SDS011;45700;50.930;5.168;2022-12-10T13:01:08;15.50;;;8.43;;
36575;SDS011;45700;50.930;5.168;2022-12-10T13:05:18;25.25;;;9.30;;
36575;SDS011;45700;50.930;5.168;2022-12-10T13:09:26;25.50;;;9.97;;
36575;SDS011;45700;50.930;5.168;2022-12-10T13:17:31;19.60;;;8.82;;
36575;SDS011;45700;50.930;5.168;2022-12-10T13:21:33;15.88;;;8.98;;
36575;SDS011;45700;50.930;5.168;2022-12-10T13:25:42;20.23;;;10.18;;
36575;SDS011;45700;50.930;5.168;2022-12-10T13:29:56;14.85;;;5.32;;
36575;SDS011;45700;50.930;5.168;2022-12-10T13:38:15;13.38;;;5.85;;
36575;SDS011;45700;50.930;5.168;2022-12-10T13:42:22;15.52;;;8.73;;
36575;SDS011;45700;50.930;5.168;2022-12-10T13:46:54;26.10;;;9.93;;
36575;SDS011;45700;50.930;5.168;2022-12-10T13:59:35;31.08;;;11.25;;
36575;SDS011;45700;50.930;5.168;2022-12-10T14:07:42;29.48;;;12.32;;
36575;SDS011;45700;50.930;5.168;2022-12-10T14:16:12;43.05;;;11.82;;
36575;SDS011;45700;50.930;5.168;2022-12-10T14:20:15;40.47;;;11.60;;
36575;SDS011;45700;50.930;5.168;2022-12-10T14:28:29;35.90;;;11.20;;
36575;SDS011;45700;50.930;5.168;2022-12-10T14:32:36;28.85;;;10.40;;
36575;SDS011;45700;50.930;5.168;2022-12-10T14:36:38;42.10;;;13.45;;
36575;SDS011;45700;50.930;5.168;2022-12-10T14:40:41;28.88;;;10.20;;
36575;SDS011;45700;50.930;5.168;2022-12-10T14:44:42;31.25;;;13.18;;
36575;SDS011;45700;50.930;5.168;2022-12-10T14:48:43;30.80;;;12.15;;
36575;SDS011;45700;50.930;5.168;2022-12-10T14:52:50;34.10;;;11.18;;
36575;SDS011;45700;50.930;5.168;2022-12-10T14:56:52;26.23;;;9.63;;
36575;SDS011;45700;50.930;5.168;2022-12-10T15:00:53;28.95;;;10.27;;
36575;SDS011;45700;50.930;5.168;2022-12-10T15:04:54;40.60;;;11.52;;
36575;SDS011;45700;50.930;5.168;2022-12-10T15:08:56;28.98;;;12.27;;
36575;SDS011;45700;50.930;5.168;2022-12-10T15:12:58;33.92;;;13.27;;
36575;SDS011;45700;50.930;5.168;2022-12-10T15:17:00;27.40;;;11.60;;
36575;SDS011;45700;50.930;5.168;2022-12-10T15:21:08;23.17;;;9.63;;
36575;SDS011;45700;50.930;5.168;2022-12-10T15:25:28;40.40;;;12.40;;
36575;SDS011;45700;50.930;5.168;2022-12-10T15:29:31;27.95;;;11.18;;
36575;SDS011;45700;50.930;5.168;2022-12-10T15:33:36;22.77;;;9.25;;
36575;SDS011;45700;50.930;5.168;2022-12-10T15:37:38;32.75;;;13.73;;
36575;SDS011;45700;50.930;5.168;2022-12-10T15:45:41;42.40;;;12.30;;
36575;SDS011;45700;50.930;5.168;2022-12-10T15:49:43;39.67;;;12.07;;
36575;SDS011;45700;50.930;5.168;2022-12-10T15:53:44;38.20;;;11.50;;
36575;SDS011;45700;50.930;5.168;2022-12-10T15:57:45;33.72;;;12.02;;
36575;SDS011;45700;50.930;5.168;2022-12-10T16:01:48;49.30;;;15.25;;
36575;SDS011;45700;50.930;5.168;2022-12-10T16:05:49;34.63;;;12.25;;
36575;SDS011;45700;50.930;5.168;2022-12-10T16:09:50;29.95;;;12.90;;
36575;SDS011;45700;50.930;5.168;2022-12-10T16:13:52;54.50;;;13.82;;
36575;SDS011;45700;50.930;5.168;2022-12-10T16:17:55;40.25;;;14.65;;
36575;SDS011;45700;50.930;5.168;2022-12-10T16:21:56;56.25;;;15.50;;
36575;SDS011;45700;50.930;5.168;2022-12-10T16:25:57;53.17;;;14.52;;
36575;SDS011;45700;50.930;5.168;2022-12-10T16:29:58;51.67;;;16.20;;
36575;SDS011;45700;50.930;5.168;2022-12-10T16:34:00;51.40;;;16.85;;
36575;SDS011;45700;50.930;5.168;2022-12-10T16:38:01;57.05;;;13.07;;
36575;SDS011;45700;50.930;5.168;2022-12-10T16:42:02;26.20;;;11.75;;
36575;SDS011;45700;50.930;5.168;2022-12-10T16:46:03;31.00;;;10.65;;
36575;SDS011;45700;50.930;5.168;2022-12-10T16:50:04;38.75;;;11.50;;
36575;SDS011;45700;50.930;5.168;2022-12-10T16:54:05;31.58;;;12.70;;
36575;SDS011;45700;50.930;5.168;2022-12-10T16:58:08;46.20;;;10.38;;
36575;SDS011;45700;50.930;5.168;2022-12-10T17:02:12;45.92;;;12.60;;
36575;SDS011;45700;50.930;5.168;2022-12-10T17:06:14;36.13;;;13.07;;
36575;SDS011;45700;50.930;5.168;2022-12-10T17:10:15;41.55;;;14.38;;
36575;SDS011;45700;50.930;5.168;2022-12-10T17:14:24;33.40;;;10.75;;
36575;SDS011;45700;50.930;5.168;2022-12-10T17:18:25;23.63;;;10.68;;
36575;SDS011;45700;50.930;5.168;2022-12-10T17:22:26;33.08;;;13.43;;
36575;SDS011;45700;50.930;5.168;2022-12-10T17:26:28;30.92;;;10.85;;
36575;SDS011;45700;50.930;5.168;2022-12-10T17:30:29;36.28;;;12.23;;
36575;SDS011;45700;50.930;5.168;2022-12-10T17:34:30;21.67;;;11.15;;
36575;SDS011;45700;50.930;5.168;2022-12-10T17:38:31;30.15;;;10.27;;
36575;SDS011;45700;50.930;5.168;2022-12-10T17:42:32;24.10;;;10.20;;
36575;SDS011;45700;50.930;5.168;2022-12-10T17:46:33;32.20;;;10.40;;
36575;SDS011;45700;50.930;5.168;2022-12-10T17:50:36;33.08;;;11.20;;
36575;SDS011;45700;50.930;5.168;2022-12-10T17:54:37;39.90;;;12.32;;
36575;SDS011;45700;50.930;5.168;2022-12-10T17:58:39;53.85;;;13.05;;
36575;SDS011;45700;50.930;5.168;2022-12-10T18:02:40;29.25;;;8.27;;
36575;SDS011;45700;50.930;5.168;2022-12-10T18:06:41;16.42;;;5.20;;
36575;SDS011;45700;50.930;5.168;2022-12-10T18:10:43;17.27;;;5.65;;
36575;SDS011;45700;50.930;5.168;2022-12-10T18:14:44;4.03;;;3.55;;
36575;SDS011;45700;50.930;5.168;2022-12-10T18:18:45;10.70;;;3.35;;
36575;SDS011;45700;50.930;5.168;2022-12-10T18:22:46;10.60;;;1.88;;
36575;SDS011;45700;50.930;5.168;2022-12-10T18:26:47;5.05;;;3.35;;
36575;SDS011;45700;50.930;5.168;2022-12-10T18:30:49;5.63;;;2.60;;
36575;SDS011;45700;50.930;5.168;2022-12-10T18:34:51;4.68;;;2.03;;
36575;SDS011;45700;50.930;5.168;2022-12-10T18:38:53;8.15;;;4.25;;
36575;SDS011;45700;50.930;5.168;2022-12-10T18:42:55;18.48;;;2.08;;
36575;SDS011;45700;50.930;5.168;2022-12-10T18:46:56;3.88;;;2.67;;
36575;SDS011;45700;50.930;5.168;2022-12-10T18:50:57;7.78;;;5.13;;
36575;SDS011;45700;50.930;5.168;2022-12-10T18:54:58;2.38;;;1.98;;
36575;SDS011;45700;50.930;5.168;2022-12-10T18:59:00;10.13;;;3.67;;
36575;SDS011;45700;50.930;5.168;2022-12-10T19:03:02;4.90;;;3.22;;
36575;SDS011;45700;50.930;5.168;2022-12-10T19:07:03;1.55;;;1.45;;
36575;SDS011;45700;50.930;5.168;2022-12-10T19:11:04;5.45;;;3.50;;
36575;SDS011;45700;50.930;5.168;2022-12-10T19:15:06;1.80;;;1.35;;
36575;SDS011;45700;50.930;5.168;2022-12-10T19:19:09;5.35;;;4.20;;
36575;SDS011;45700;50.930;5.168;2022-12-10T19:23:10;2.60;;;2.40;;
36575;SDS011;45700;50.930;5.168;2022-12-10T19:27:12;2.88;;;2.67;;
36575;SDS011;45700;50.930;5.168;2022-12-10T19:31:13;7.15;;;4.07;;
36575;SDS011;45700;50.930;5.168;2022-12-10T19:35:15;7.20;;;2.92;;
36575;SDS011;45700;50.930;5.168;2022-12-10T19:39:18;4.28;;;2.10;;
36575;SDS011;45700;50.930;5.168;2022-12-10T19:43:19;3.33;;;2.20;;
36575;SDS011;45700;50.930;5.168;2022-12-10T19:47:20;7.43;;;4.75;;
36575;SDS011;45700;50.930;5.168;2022-12-10T19:51:21;10.25;;;3.88;;
36575;SDS011;45700;50.930;5.168;2022-12-10T19:55:23;8.77;;;2.60;;
36575;SDS011;45700;50.930;5.168;2022-12-10T19:59:24;3.05;;;2.83;;
36575;SDS011;45700;50.930;5.168;2022-12-10T20:03:25;17.75;;;5.50;;
36575;SDS011;45700;50.930;5.168;2022-12-10T20:07:26;7.45;;;3.28;;
36575;SDS011;45700;50.930;5.168;2022-12-10T20:11:28;21.70;;;6.03;;
36575;SDS011;45700;50.930;5.168;2022-12-10T20:15:29;7.95;;;3.60;;
36575;SDS011;45700;50.930;5.168;2022-12-10T20:19:30;2.85;;;2.65;;
36575;SDS011;45700;50.930;5.168;2022-12-10T20:23:31;5.78;;;2.30;;
36575;SDS011;45700;50.930;5.168;2022-12-10T20:27:32;7.63;;;3.97;;
36575;SDS011;45700;50.930;5.168;2022-12-10T20:31:33;5.10;;;4.07;;
36575;SDS011;45700;50.930;5.168;2022-12-10T20:35:34;10.88;;;6.03;;
36575;SDS011;45700;50.930;5.168;2022-12-10T20:39:35;14.18;;;4.60;;
36575;SDS011;45700;50.930;5.168;2022-12-10T20:43:36;11.90;;;3.97;;
36575;SDS011;45700;50.930;5.168;2022-12-10T20:47:37;6.65;;;4.20;;
36575;SDS011;45700;50.930;5.168;2022-12-10T20:51:38;5.05;;;2.75;;
36575;SDS011;45700;50.930;5.168;2022-12-10T20:55:39;7.07;;;2.83;;
36575;SDS011;45700;50.930;5.168;2022-12-10T20:59:41;8.73;;;5.50;;
36575;SDS011;45700;50.930;5.168;2022-12-10T21:03:42;15.98;;;3.78;;
36575;SDS011;45700;50.930;5.168;2022-12-10T21:07:43;8.90;;;4.00;;
36575;SDS011;45700;50.930;5.168;2022-12-10T21:11:44;1.88;;;1.77;;
36575;SDS011;45700;50.930;5.168;2022-12-10T21:15:45;4.75;;;1.92;;
36575;SDS011;45700;50.930;5.168;2022-12-10T21:19:46;8.45;;;3.17;;
36575;SDS011;45700;50.930;5.168;2022-12-10T21:23:47;5.93;;;3.80;;
36575;SDS011;45700;50.930;5.168;2022-12-10T21:27:48;6.80;;;2.90;;
36575;SDS011;45700;50.930;5.168;2022-12-10T21:31:50;3.38;;;3.03;;
36575;SDS011;45700;50.930;5.168;2022-12-10T21:35:51;3.42;;;2.20;;
36575;SDS011;45700;50.930;5.168;2022-12-10T21:39:54;13.55;;;2.53;;
36575;SDS011;45700;50.930;5.168;2022-12-10T21:43:56;13.55;;;3.67;;
36575;SDS011;45700;50.930;5.168;2022-12-10T21:47:58;9.00;;;3.30;;
36575;SDS011;45700;50.930;5.168;2022-12-10T21:51:59;2.88;;;2.67;;
36575;SDS011;45700;50.930;5.168;2022-12-10T21:56:10;13.18;;;6.43;;
36575;SDS011;45700;50.930;5.168;2022-12-10T22:00:12;10.57;;;3.38;;
36575;SDS011;45700;50.930;5.168;2022-12-10T22:04:13;4.15;;;2.47;;
36575;SDS011;45700;50.930;5.168;2022-12-10T22:08:14;6.82;;;2.47;;
36575;SDS011;45700;50.930;5.168;2022-12-10T22:12:15;12.88;;;3.47;;
36575;SDS011;45700;50.930;5.168;2022-12-10T22:16:16;4.55;;;3.10;;
36575;SDS011;45700;50.930;5.168;2022-12-10T22:20:17;6.30;;;3.70;;
36575;SDS011;45700;50.930;5.168;2022-12-10T22:24:18;12.05;;;5.93;;
36575;SDS011;45700;50.930;5.168;2022-12-10T22:28:19;8.57;;;3.78;;
36575;SDS011;45700;50.930;5.168;2022-12-10T22:32:21;9.32;;;5.35;;
36575;SDS011;45700;50.930;5.168;2022-12-10T22:36:22;5.03;;;4.28;;
36575;SDS011;45700;50.930;5.168;2022-12-10T22:40:24;11.50;;;4.22;;
36575;SDS011;45700;50.930;5.168;2022-12-10T22:44:25;4.45;;;3.38;;
36575;SDS011;45700;50.930;5.168;2022-12-10T22:48:26;5.30;;;2.45;;
36575;SDS011;45700;50.930;5.168;2022-12-10T22:52:30;6.38;;;3.38;;
36575;SDS011;45700;50.930;5.168;2022-12-10T22:56:31;16.23;;;5.10;;
36575;SDS011;45700;50.930;5.168;2022-12-10T23:00:32;6.20;;;3.10;;
36575;SDS011;45700;50.930;5.168;2022-12-10T23:04:33;6.50;;;4.20;;
36575;SDS011;45700;50.930;5.168;2022-12-10T23:08:34;11.07;;;5.60;;
36575;SDS011;45700;50.930;5.168;2022-12-10T23:12:35;9.80;;;4.38;;
36575;SDS011;45700;50.930;5.168;2022-12-10T23:20:55;4.70;;;2.95;;
36575;SDS011;45700;50.930;5.168;2022-12-10T23:24:58;8.57;;;4.38;;
36575;SDS011;45700;50.930;5.168;2022-12-10T23:28:59;3.85;;;2.85;;
36575;SDS011;45700;50.930;5.168;2022-12-10T23:33:00;12.30;;;2.65;;
36575;SDS011;45700;50.930;5.168;2022-12-10T23:37:01;4.75;;;3.67;;
36575;SDS011;45700;50.930;5.168;2022-12-10T23:41:06;6.35;;;2.70;;
36575;SDS011;45700;50.930;5.168;2022-12-10T23:45:08;13.45;;;3.25;;
36575;SDS011;45700;50.930;5.168;2022-12-10T23:49:10;4.80;;;2.58;;
36575;SDS011;45700;50.930;5.168;2022-12-10T23:53:11;8.23;;;2.58;;
36575;SDS011;45700;50.930;5.168;2022-12-10T23:57:12;7.50;;;3.35;;
